sensor_id;sensor_type;location;lat;lon;timestamp;pressure;altitude;pressure_sealevel;temperature;humidity
66381;BME280;53177;52.648;1.214;2023-07-16T00:00:47;99581.00;;;15.87;84.09
66381;BME280;53177;52.648;1.214;2023-07-16T00:03:14;99573.19;;;15.84;84.89
66381;BME280;53177;52.648;1.214;2023-07-16T00:05:40;99583.19;;;15.81;84.73
66381;BME280;53177;52.648;1.214;2023-07-16T00:08:05;99589.38;;;15.81;84.84
66381;BME280;53177;52.648;1.214;2023-07-16T00:10:36;99587.66;;;15.80;84.93
66381;BME280;53177;52.648;1.214;2023-07-16T00:13:03;99587.94;;;15.76;85.17
66381;BME280;53177;52.648;1.214;2023-07-16T00:15:29;99590.81;;;15.73;85.01
66381;BME280;53177;52.648;1.214;2023-07-16T00:17:55;99596.22;;;15.71;85.56
66381;BME280;53177;52.648;1.214;2023-07-16T00:20:21;99590.81;;;15.73;85.34
66381;BME280;53177;52.648;1.214;2023-07-16T00:22:48;99602.53;;;15.70;85.81
66381;BME280;53177;52.648;1.214;2023-07-16T00:25:14;99587.47;;;15.69;86.09
66381;BME280;53177;52.648;1.214;2023-07-16T00:27:39;99599.06;;;15.68;86.29
66381;BME280;53177;52.648;1.214;2023-07-16T00:30:05;99614.31;;;15.66;85.97
66381;BME280;53177;52.648;1.214;2023-07-16T00:32:30;99604.69;;;15.64;86.31
66381;BME280;53177;52.648;1.214;2023-07-16T00:34:56;99602.22;;;15.61;86.53
66381;BME280;53177;52.648;1.214;2023-07-16T00:37:21;99599.66;;;15.59;86.88
66381;BME280;53177;52.648;1.214;2023-07-16T00:39:47;99607.81;;;15.56;87.17
66381;BME280;53177;52.648;1.214;2023-07-16T00:42:12;99606.78;;;15.58;87.15
66381;BME280;53177;52.648;1.214;2023-07-16T00:44:37;99603.25;;;15.58;86.69
66381;BME280;53177;52.648;1.214;2023-07-16T00:47:03;99614.97;;;15.55;87.20
66381;BME280;53177;52.648;1.214;2023-07-16T00:49:32;99623.25;;;15.51;87.67
66381;BME280;53177;52.648;1.214;2023-07-16T00:51:58;99626.88;;;15.48;87.41
66381;BME280;53177;52.648;1.214;2023-07-16T00:54:24;99623.25;;;15.51;87.53
66381;BME280;53177;52.648;1.214;2023-07-16T00:56:49;99629.56;;;15.48;87.89
66381;BME280;53177;52.648;1.214;2023-07-16T00:59:15;99625.28;;;15.46;87.64
66381;BME280;53177;52.648;1.214;2023-07-16T01:01:41;99630.88;;;15.41;87.88
66381;BME280;53177;52.648;1.214;2023-07-16T01:04:07;99636.88;;;15.45;87.69
66381;BME280;53177;52.648;1.214;2023-07-16T01:06:41;99640.50;;;15.44;87.56
66381;BME280;53177;52.648;1.214;2023-07-16T01:09:15;99638.88;;;15.41;88.02
66381;BME280;53177;52.648;1.214;2023-07-16T01:11:43;99636.66;;;15.34;88.17
66381;BME280;53177;52.648;1.214;2023-07-16T01:14:09;99637.44;;;15.36;88.07
66381;BME280;53177;52.648;1.214;2023-07-16T01:16:35;99638.50;;;15.33;88.17
66381;BME280;53177;52.648;1.214;2023-07-16T01:19:01;99637.72;;;15.31;88.00
66381;BME280;53177;52.648;1.214;2023-07-16T01:21:32;99649.41;;;15.29;88.29
66381;BME280;53177;52.648;1.214;2023-07-16T01:24:10;99644.09;;;15.29;88.25
66381;BME280;53177;52.648;1.214;2023-07-16T01:29:35;99644.28;;;15.26;88.69
66381;BME280;53177;52.648;1.214;2023-07-16T01:32:03;99642.72;;;15.22;89.10
66381;BME280;53177;52.648;1.214;2023-07-16T01:34:32;99644.63;;;15.20;88.91
66381;BME280;53177;52.648;1.214;2023-07-16T01:37:02;99640.34;;;15.17;89.56
66381;BME280;53177;52.648;1.214;2023-07-16T01:39:28;99640.50;;;15.14;89.32
66381;BME280;53177;52.648;1.214;2023-07-16T01:41:54;99652.28;;;15.10;89.63
66381;BME280;53177;52.648;1.214;2023-07-16T01:44:20;99658.47;;;15.10;89.74
66381;BME280;53177;52.648;1.214;2023-07-16T01:46:53;99661.41;;;15.06;89.88
66381;BME280;53177;52.648;1.214;2023-07-16T01:49:24;99670.34;;;15.05;89.44
66381;BME280;53177;52.648;1.214;2023-07-16T01:51:49;99670.34;;;15.05;89.58
66381;BME280;53177;52.648;1.214;2023-07-16T01:54:15;99669.56;;;15.03;89.39
66381;BME280;53177;52.648;1.214;2023-07-16T01:56:40;99676.09;;;14.97;89.69
66381;BME280;53177;52.648;1.214;2023-07-16T01:59:05;99668.28;;;14.94;89.59
66381;BME280;53177;52.648;1.214;2023-07-16T02:01:31;99665.69;;;14.93;89.93
66381;BME280;53177;52.648;1.214;2023-07-16T02:03:56;99685.97;;;14.95;89.53
66381;BME280;53177;52.648;1.214;2023-07-16T02:06:22;99670.69;;;14.99;89.28
66381;BME280;53177;52.648;1.214;2023-07-16T02:08:47;99675.91;;;15.00;89.48
66381;BME280;53177;52.648;1.214;2023-07-16T02:11:15;99681.41;;;14.97;89.69
66381;BME280;53177;52.648;1.214;2023-07-16T02:13:42;99683.31;;;14.95;89.69
66381;BME280;53177;52.648;1.214;2023-07-16T02:16:07;99685.97;;;14.95;90.07
66381;BME280;53177;52.648;1.214;2023-07-16T02:18:33;99690.09;;;15.01;89.65
66381;BME280;53177;52.648;1.214;2023-07-16T02:20:58;99692.56;;;15.04;89.24
66381;BME280;53177;52.648;1.214;2023-07-16T02:23:24;99697.06;;;15.03;89.47
66381;BME280;53177;52.648;1.214;2023-07-16T02:25:49;99703.75;;;15.10;88.73
66381;BME280;53177;52.648;1.214;2023-07-16T02:28:14;99699.44;;;15.08;88.94
66381;BME280;53177;52.648;1.214;2023-07-16T02:30:41;99718.75;;;15.11;88.63
66381;BME280;53177;52.648;1.214;2023-07-16T02:33:06;99713.44;;;15.11;88.27
66381;BME280;53177;52.648;1.214;2023-07-16T02:35:31;99710.69;;;15.13;88.09
66381;BME280;53177;52.648;1.214;2023-07-16T02:37:57;99713.44;;;15.11;87.76
66381;BME280;53177;52.648;1.214;2023-07-16T02:40:23;99714.22;;;15.14;87.82
66381;BME280;53177;52.648;1.214;2023-07-16T02:42:49;99706.22;;;15.14;87.58
66381;BME280;53177;52.648;1.214;2023-07-16T02:45:14;99715.94;;;15.15;87.80
66381;BME280;53177;52.648;1.214;2023-07-16T02:47:40;99714.28;;;15.12;87.51
66381;BME280;53177;52.648;1.214;2023-07-16T02:50:06;99713.34;;;15.13;87.26
66381;BME280;53177;52.648;1.214;2023-07-16T02:52:31;99719.53;;;15.14;86.87
66381;BME280;53177;52.648;1.214;2023-07-16T02:54:56;99721.28;;;15.15;86.38
66381;BME280;53177;52.648;1.214;2023-07-16T02:57:22;99725.91;;;15.11;87.06
66381;BME280;53177;52.648;1.214;2023-07-16T02:59:48;99722.56;;;15.07;87.24
66381;BME280;53177;52.648;1.214;2023-07-16T03:02:13;99736.13;;;15.03;87.71
66381;BME280;53177;52.648;1.214;2023-07-16T03:04:38;99726.34;;;15.03;87.31
66381;BME280;53177;52.648;1.214;2023-07-16T03:07:04;99737.06;;;15.02;87.65
66381;BME280;53177;52.648;1.214;2023-07-16T03:09:30;99743.88;;;15.07;87.11
66381;BME280;53177;52.648;1.214;2023-07-16T03:11:55;99745.94;;;15.02;86.68
66381;BME280;53177;52.648;1.214;2023-07-16T03:14:21;99756.75;;;14.99;87.21
66381;BME280;53177;52.648;1.214;2023-07-16T03:16:48;99753.91;;;15.02;86.86
66381;BME280;53177;52.648;1.214;2023-07-16T03:19:23;99747.97;;;14.97;86.79
66381;BME280;53177;52.648;1.214;2023-07-16T03:21:53;99756.16;;;14.94;87.17
66381;BME280;53177;52.648;1.214;2023-07-16T03:24:25;99765.06;;;14.93;87.14
66381;BME280;53177;52.648;1.214;2023-07-16T03:26:52;99756.50;;;14.88;88.04
66381;BME280;53177;52.648;1.214;2023-07-16T03:29:20;99769.38;;;14.96;87.14
66381;BME280;53177;52.648;1.214;2023-07-16T03:31:49;99766.63;;;14.97;86.82
66381;BME280;53177;52.648;1.214;2023-07-16T03:34:21;99774.72;;;14.96;86.77
66381;BME280;53177;52.648;1.214;2023-07-16T03:36:51;99771.06;;;14.97;87.08
66381;BME280;53177;52.648;1.214;2023-07-16T03:39:18;99779.16;;;14.95;87.46
66381;BME280;53177;52.648;1.214;2023-07-16T03:41:43;99791.69;;;14.93;87.82
66381;BME280;53177;52.648;1.214;2023-07-16T03:44:08;99788.97;;;14.95;87.45
66381;BME280;53177;52.648;1.214;2023-07-16T03:46:34;99791.63;;;14.95;87.44
66381;BME280;53177;52.648;1.214;2023-07-16T03:49:00;99805.78;;;14.95;87.06
66381;BME280;53177;52.648;1.214;2023-07-16T03:51:25;99811.13;;;14.95;87.35
66381;BME280;53177;52.648;1.214;2023-07-16T03:53:50;99807.41;;;14.98;86.48
66381;BME280;53177;52.648;1.214;2023-07-16T03:56:16;99817.19;;;14.97;87.03
66381;BME280;53177;52.648;1.214;2023-07-16T03:58:41;99814.66;;;14.96;87.10
66381;BME280;53177;52.648;1.214;2023-07-16T04:01:06;99817.31;;;14.96;86.45
66381;BME280;53177;52.648;1.214;2023-07-16T04:03:32;99813.84;;;14.94;86.99
66381;BME280;53177;52.648;1.214;2023-07-16T04:06:02;99820.03;;;14.94;87.03
66381;BME280;53177;52.648;1.214;2023-07-16T04:08:27;99816.69;;;14.91;86.94
66381;BME280;53177;52.648;1.214;2023-07-16T04:10:53;99816.06;;;14.86;86.84
66381;BME280;53177;52.648;1.214;2023-07-16T04:13:18;99827.94;;;14.80;87.25
66381;BME280;53177;52.648;1.214;2023-07-16T04:15:43;99820.97;;;14.78;87.21
66381;BME280;53177;52.648;1.214;2023-07-16T04:18:09;99812.19;;;14.76;87.31
66381;BME280;53177;52.648;1.214;2023-07-16T04:20:34;99821.22;;;14.73;87.46
66381;BME280;53177;52.648;1.214;2023-07-16T04:22:59;99825.59;;;14.74;87.13
66381;BME280;53177;52.648;1.214;2023-07-16T04:25:25;99827.72;;;14.68;87.67
66381;BME280;53177;52.648;1.214;2023-07-16T04:27:50;99835.97;;;14.63;87.95
66381;BME280;53177;52.648;1.214;2023-07-16T04:30:17;99841.19;;;14.65;87.58
66381;BME280;53177;52.648;1.214;2023-07-16T04:32:42;99844.78;;;14.63;87.40
66381;BME280;53177;52.648;1.214;2023-07-16T04:35:07;99847.84;;;14.73;86.04
66381;BME280;53177;52.648;1.214;2023-07-16T04:37:33;99837.09;;;14.75;86.17
66381;BME280;53177;52.648;1.214;2023-07-16T04:39:58;99850.38;;;14.75;86.41
66381;BME280;53177;52.648;1.214;2023-07-16T04:42:24;99854.88;;;14.74;86.71
66381;BME280;53177;52.648;1.214;2023-07-16T04:44:49;99871.78;;;14.73;86.85
66381;BME280;53177;52.648;1.214;2023-07-16T04:47:14;99870.16;;;14.71;87.12
66381;BME280;53177;52.648;1.214;2023-07-16T04:49:40;99872.81;;;14.71;87.60
66381;BME280;53177;52.648;1.214;2023-07-16T04:52:06;99874.69;;;14.69;87.04
66381;BME280;53177;52.648;1.214;2023-07-16T04:54:36;99875.31;;;14.74;86.85
66381;BME280;53177;52.648;1.214;2023-07-16T04:57:01;99878.84;;;14.74;86.90
66381;BME280;53177;52.648;1.214;2023-07-16T04:59:27;99888.69;;;14.72;86.39
66381;BME280;53177;52.648;1.214;2023-07-16T05:01:52;99895.63;;;14.75;86.14
66381;BME280;53177;52.648;1.214;2023-07-16T05:04:18;99889.22;;;14.79;85.63
66381;BME280;53177;52.648;1.214;2023-07-16T05:06:43;99882.09;;;14.79;85.89
66381;BME280;53177;52.648;1.214;2023-07-16T05:09:08;99893.78;;;14.77;86.17
66381;BME280;53177;52.648;1.214;2023-07-16T05:11:34;99904.19;;;14.81;85.84
66381;BME280;53177;52.648;1.214;2023-07-16T05:13:59;99906.91;;;14.80;85.98
66381;BME280;53177;52.648;1.214;2023-07-16T05:16:24;99899.00;;;14.78;86.38
66381;BME280;53177;52.648;1.214;2023-07-16T05:18:50;99907.94;;;14.77;86.44
66381;BME280;53177;52.648;1.214;2023-07-16T05:21:15;99914.97;;;14.78;86.27
66381;BME280;53177;52.648;1.214;2023-07-16T05:23:41;99908.06;;;14.91;85.29
66381;BME280;53177;52.648;1.214;2023-07-16T05:26:06;99921.78;;;14.84;85.48
66381;BME280;53177;52.648;1.214;2023-07-16T05:28:31;99919.19;;;14.82;85.83
66381;BME280;53177;52.648;1.214;2023-07-16T05:31:03;99923.59;;;14.83;85.53
66381;BME280;53177;52.648;1.214;2023-07-16T05:33:28;99925.16;;;14.87;84.96
66381;BME280;53177;52.648;1.214;2023-07-16T05:35:54;99925.91;;;14.89;85.13
66381;BME280;53177;52.648;1.214;2023-07-16T05:38:20;99927.75;;;14.89;84.14
66381;BME280;53177;52.648;1.214;2023-07-16T05:40:45;99933.91;;;14.89;84.53
66381;BME280;53177;52.648;1.214;2023-07-16T05:43:11;99935.38;;;14.95;83.76
66381;BME280;53177;52.648;1.214;2023-07-16T05:45:36;99943.22;;;14.98;84.48
66381;BME280;53177;52.648;1.214;2023-07-16T05:48:02;99947.44;;;15.02;84.62
66381;BME280;53177;52.648;1.214;2023-07-16T05:50:28;99950.78;;;15.05;83.78
66381;BME280;53177;52.648;1.214;2023-07-16T05:52:54;99942.47;;;15.11;83.73
66381;BME280;53177;52.648;1.214;2023-07-16T05:55:19;99942.47;;;15.11;83.18
66381;BME280;53177;52.648;1.214;2023-07-16T05:57:45;99951.31;;;15.12;83.75
66381;BME280;53177;52.648;1.214;2023-07-16T06:00:11;99947.78;;;15.11;84.00
66381;BME280;53177;52.648;1.214;2023-07-16T06:02:38;99962.13;;;15.09;84.16
66381;BME280;53177;52.648;1.214;2023-07-16T06:05:04;99963.22;;;15.22;83.35
66381;BME280;53177;52.648;1.214;2023-07-16T06:07:30;99968.78;;;15.18;83.05
66381;BME280;53177;52.648;1.214;2023-07-16T06:09:56;99973.31;;;15.16;83.20
66381;BME280;53177;52.648;1.214;2023-07-16T06:12:22;99983.16;;;15.31;82.99
66381;BME280;53177;52.648;1.214;2023-07-16T06:14:47;99981.00;;;15.37;82.65
66381;BME280;53177;52.648;1.214;2023-07-16T06:17:12;99986.94;;;15.27;82.55
66381;BME280;53177;52.648;1.214;2023-07-16T06:19:38;99982.81;;;15.21;83.30
66381;BME280;53177;52.648;1.214;2023-07-16T06:22:03;99990.44;;;15.27;82.49
66381;BME280;53177;52.648;1.214;2023-07-16T06:24:29;99994.78;;;15.30;81.57
66381;BME280;53177;52.648;1.214;2023-07-16T06:26:54;99999.94;;;15.33;82.35
66381;BME280;53177;52.648;1.214;2023-07-16T06:29:19;99999.53;;;15.40;81.66
66381;BME280;53177;52.648;1.214;2023-07-16T06:31:57;99994.09;;;15.42;81.31
66381;BME280;53177;52.648;1.214;2023-07-16T06:34:26;99992.91;;;15.47;81.59
66381;BME280;53177;52.648;1.214;2023-07-16T06:36:51;99998.97;;;15.51;81.73
66381;BME280;53177;52.648;1.214;2023-07-16T06:39:17;100006.13;;;15.66;80.01
66381;BME280;53177;52.648;1.214;2023-07-16T06:41:42;99998.91;;;15.68;80.15
66381;BME280;53177;52.648;1.214;2023-07-16T06:44:07;100011.75;;;15.77;80.49
66381;BME280;53177;52.648;1.214;2023-07-16T06:46:33;100014.22;;;15.80;79.71
66381;BME280;53177;52.648;1.214;2023-07-16T06:48:58;100010.78;;;15.78;79.89
66381;BME280;53177;52.648;1.214;2023-07-16T06:51:24;100020.94;;;15.87;80.54
66381;BME280;53177;52.648;1.214;2023-07-16T06:53:49;100023.69;;;15.86;80.20
66381;BME280;53177;52.648;1.214;2023-07-16T06:56:15;100020.69;;;15.92;79.65
66381;BME280;53177;52.648;1.214;2023-07-16T06:58:40;100024.06;;;15.95;79.61
66381;BME280;53177;52.648;1.214;2023-07-16T07:01:06;100033.25;;;16.05;78.77
66381;BME280;53177;52.648;1.214;2023-07-16T07:03:31;100038.75;;;16.02;78.45
66381;BME280;53177;52.648;1.214;2023-07-16T07:06:01;100020.97;;;16.03;78.49
66381;BME280;53177;52.648;1.214;2023-07-16T07:08:27;100035.75;;;16.08;79.22
66381;BME280;53177;52.648;1.214;2023-07-16T07:10:52;100033.19;;;16.07;78.10
66381;BME280;53177;52.648;1.214;2023-07-16T07:13:18;100038.78;;;16.18;77.70
66381;BME280;53177;52.648;1.214;2023-07-16T07:15:43;100034.94;;;16.22;77.99
66381;BME280;53177;52.648;1.214;2023-07-16T07:18:09;100035.75;;;16.24;76.71
66381;BME280;53177;52.648;1.214;2023-07-16T07:20:34;100046.66;;;16.35;77.07
66381;BME280;53177;52.648;1.214;2023-07-16T07:22:59;100043.69;;;16.55;77.49
66381;BME280;53177;52.648;1.214;2023-07-16T07:25:28;100055.06;;;16.75;77.15
66381;BME280;53177;52.648;1.214;2023-07-16T07:27:53;100061.53;;;16.71;75.08
66381;BME280;53177;52.648;1.214;2023-07-16T07:30:19;100050.69;;;16.74;75.09
66381;BME280;53177;52.648;1.214;2023-07-16T07:32:45;100061.63;;;16.69;74.48
66381;BME280;53177;52.648;1.214;2023-07-16T07:35:11;100061.13;;;16.63;74.95
66381;BME280;53177;52.648;1.214;2023-07-16T07:37:36;100064.22;;;16.55;74.81
66381;BME280;53177;52.648;1.214;2023-07-16T07:40:03;100066.47;;;16.63;75.25
66381;BME280;53177;52.648;1.214;2023-07-16T07:42:29;100073.81;;;16.59;73.99
66381;BME280;53177;52.648;1.214;2023-07-16T07:44:55;100071.22;;;16.58;73.56
66381;BME280;53177;52.648;1.214;2023-07-16T07:47:20;100071.03;;;16.61;74.63
66381;BME280;53177;52.648;1.214;2023-07-16T07:49:46;100075.75;;;16.71;74.27
66381;BME280;53177;52.648;1.214;2023-07-16T07:52:11;100070.28;;;16.59;73.74
66381;BME280;53177;52.648;1.214;2023-07-16T07:54:37;100084.63;;;16.72;74.21
66381;BME280;53177;52.648;1.214;2023-07-16T07:57:04;100084.47;;;16.89;74.42
66381;BME280;53177;52.648;1.214;2023-07-16T07:59:29;100103.41;;;16.70;74.23
66381;BME280;53177;52.648;1.214;2023-07-16T08:01:55;100085.31;;;16.75;74.43
66381;BME280;53177;52.648;1.214;2023-07-16T08:04:21;100089.53;;;17.09;72.54
66381;BME280;53177;52.648;1.214;2023-07-16T08:06:46;100085.69;;;17.29;73.64
66381;BME280;53177;52.648;1.214;2023-07-16T08:09:11;100083.56;;;17.34;72.56
66381;BME280;53177;52.648;1.214;2023-07-16T08:11:37;100086.81;;;17.25;72.80
66381;BME280;53177;52.648;1.214;2023-07-16T08:14:02;100097.28;;;17.14;72.75
66381;BME280;53177;52.648;1.214;2023-07-16T08:16:28;100096.91;;;17.20;72.81
66381;BME280;53177;52.648;1.214;2023-07-16T08:18:53;100096.53;;;17.26;72.56
66381;BME280;53177;52.648;1.214;2023-07-16T08:21:19;100094.72;;;17.26;72.74
66381;BME280;53177;52.648;1.214;2023-07-16T08:23:49;100100.97;;;17.11;71.79
66381;BME280;53177;52.648;1.214;2023-07-16T08:26:14;100108.97;;;17.11;72.29
66381;BME280;53177;52.648;1.214;2023-07-16T08:28:40;100117.28;;;17.07;72.37
66381;BME280;53177;52.648;1.214;2023-07-16T08:31:05;100116.78;;;17.00;72.61
66381;BME280;53177;52.648;1.214;2023-07-16T08:33:30;100120.44;;;16.83;73.12
66381;BME280;53177;52.648;1.214;2023-07-16T08:35:56;100130.94;;;16.71;73.82
66381;BME280;53177;52.648;1.214;2023-07-16T08:38:21;100126.16;;;16.62;74.31
66381;BME280;53177;52.648;1.214;2023-07-16T08:40:47;100125.47;;;16.58;74.77
66381;BME280;53177;52.648;1.214;2023-07-16T08:43:16;100129.06;;;16.57;73.58
66381;BME280;53177;52.648;1.214;2023-07-16T08:45:42;100134.41;;;16.57;74.21
66381;BME280;53177;52.648;1.214;2023-07-16T08:48:10;100147.25;;;16.66;74.92
66381;BME280;53177;52.648;1.214;2023-07-16T08:50:36;100145.84;;;16.75;74.68
66381;BME280;53177;52.648;1.214;2023-07-16T08:53:04;100133.03;;;16.81;74.24
66381;BME280;53177;52.648;1.214;2023-07-16T08:55:30;100151.63;;;16.83;74.44
66381;BME280;53177;52.648;1.214;2023-07-16T08:57:56;100159.97;;;16.92;74.74
66381;BME280;53177;52.648;1.214;2023-07-16T09:00:25;100151.25;;;17.04;73.64
66381;BME280;53177;52.648;1.214;2023-07-16T09:02:53;100158.00;;;17.26;72.83
66381;BME280;53177;52.648;1.214;2023-07-16T09:05:22;100155.31;;;17.26;71.94
66381;BME280;53177;52.648;1.214;2023-07-16T09:07:48;100161.22;;;17.17;71.15
66381;BME280;53177;52.648;1.214;2023-07-16T09:10:15;100168.75;;;17.10;70.50
66381;BME280;53177;52.648;1.214;2023-07-16T09:12:47;100161.22;;;17.17;71.01
66381;BME280;53177;52.648;1.214;2023-07-16T09:15:17;100163.69;;;17.20;71.17
66381;BME280;53177;52.648;1.214;2023-07-16T09:17:48;100164.81;;;17.31;71.72
66381;BME280;53177;52.648;1.214;2023-07-16T09:20:17;100166.94;;;17.40;71.92
66381;BME280;53177;52.648;1.214;2023-07-16T09:22:44;100172.22;;;17.26;70.61
66381;BME280;53177;52.648;1.214;2023-07-16T09:25:10;100178.75;;;17.36;71.07
66381;BME280;53177;52.648;1.214;2023-07-16T09:27:36;100179.47;;;17.24;71.39
66381;BME280;53177;52.648;1.214;2023-07-16T09:30:05;100176.63;;;17.27;70.58
66381;BME280;53177;52.648;1.214;2023-07-16T09:32:38;100186.94;;;17.33;69.99
66381;BME280;53177;52.648;1.214;2023-07-16T09:35:13;100190.84;;;17.28;70.91
66381;BME280;53177;52.648;1.214;2023-07-16T09:37:41;100182.50;;;17.48;70.10
66381;BME280;53177;52.648;1.214;2023-07-16T09:40:08;100197.13;;;17.72;70.75
66381;BME280;53177;52.648;1.214;2023-07-16T09:42:43;100198.34;;;17.67;70.57
66381;BME280;53177;52.648;1.214;2023-07-16T09:45:17;100200.19;;;17.66;69.39
66381;BME280;53177;52.648;1.214;2023-07-16T09:47:43;100205.78;;;17.62;68.68
66381;BME280;53177;52.648;1.214;2023-07-16T09:50:09;100201.38;;;17.61;69.84
66381;BME280;53177;52.648;1.214;2023-07-16T09:52:34;100222.06;;;17.73;69.88
66381;BME280;53177;52.648;1.214;2023-07-16T09:55:03;100210.50;;;17.86;69.29
66381;BME280;53177;52.648;1.214;2023-07-16T09:57:32;100220.22;;;18.03;68.83
66381;BME280;53177;52.648;1.214;2023-07-16T10:00:05;100216.47;;;18.20;69.83
66381;BME280;53177;52.648;1.214;2023-07-16T10:02:34;100229.84;;;18.34;68.72
66381;BME280;53177;52.648;1.214;2023-07-16T10:05:17;100223.75;;;18.60;68.06
66381;BME280;53177;52.648;1.214;2023-07-16T10:07:50;100229.78;;;18.35;67.64
66381;BME280;53177;52.648;1.214;2023-07-16T10:10:17;100236.47;;;18.71;65.73
66381;BME280;53177;52.648;1.214;2023-07-16T10:12:54;100228.19;;;19.02;67.07
66381;BME280;53177;52.648;1.214;2023-07-16T10:15:25;100231.03;;;19.40;64.37
66381;BME280;53177;52.648;1.214;2023-07-16T10:17:51;100232.63;;;19.82;63.71
66381;BME280;53177;52.648;1.214;2023-07-16T10:20:31;100231.78;;;20.07;62.50
66381;BME280;53177;52.648;1.214;2023-07-16T10:22:57;100239.56;;;20.24;60.49
66381;BME280;53177;52.648;1.214;2023-07-16T10:25:25;100244.84;;;19.73;61.20
66381;BME280;53177;52.648;1.214;2023-07-16T10:27:53;100241.69;;;19.27;61.67
66381;BME280;53177;52.648;1.214;2023-07-16T10:30:20;100257.22;;;19.22;61.25
66381;BME280;53177;52.648;1.214;2023-07-16T10:32:46;100252.00;;;19.33;62.60
66381;BME280;53177;52.648;1.214;2023-07-16T10:35:12;100261.19;;;19.29;63.26
66381;BME280;53177;52.648;1.214;2023-07-16T10:37:39;100262.59;;;19.49;61.43
66381;BME280;53177;52.648;1.214;2023-07-16T10:40:10;100259.19;;;19.33;62.91
66381;BME280;53177;52.648;1.214;2023-07-16T10:42:36;100246.34;;;19.38;62.53
66381;BME280;53177;52.648;1.214;2023-07-16T10:45:04;100256.91;;;19.27;62.54
66381;BME280;53177;52.648;1.214;2023-07-16T10:47:31;100259.94;;;19.49;60.21
66381;BME280;53177;52.648;1.214;2023-07-16T10:49:57;100255.88;;;19.56;59.50
66381;BME280;53177;52.648;1.214;2023-07-16T10:52:23;100272.41;;;19.36;60.47
66381;BME280;53177;52.648;1.214;2023-07-16T10:54:50;100275.88;;;19.24;61.33
66381;BME280;53177;52.648;1.214;2023-07-16T10:57:17;100270.72;;;19.62;59.25
66381;BME280;53177;52.648;1.214;2023-07-16T10:59:42;100266.00;;;20.43;59.05
66381;BME280;53177;52.648;1.214;2023-07-16T11:02:14;100249.00;;;20.80;56.47
66381;BME280;53177;52.648;1.214;2023-07-16T11:04:42;100268.06;;;20.39;57.69
66381;BME280;53177;52.648;1.214;2023-07-16T11:07:09;100257.19;;;20.53;58.19
66381;BME280;53177;52.648;1.214;2023-07-16T11:09:50;100273.31;;;21.15;57.80
66381;BME280;53177;52.648;1.214;2023-07-16T11:12:17;100262.75;;;20.63;56.42
66381;BME280;53177;52.648;1.214;2023-07-16T11:14:48;100258.56;;;21.08;56.48
66381;BME280;53177;52.648;1.214;2023-07-16T11:17:15;100273.63;;;21.10;56.63
66381;BME280;53177;52.648;1.214;2023-07-16T11:19:44;100269.00;;;20.63;55.88
66381;BME280;53177;52.648;1.214;2023-07-16T11:22:10;100271.78;;;20.24;58.02
66381;BME280;53177;52.648;1.214;2023-07-16T11:24:39;100279.00;;;20.49;57.27
66381;BME280;53177;52.648;1.214;2023-07-16T11:27:06;100273.72;;;20.72;56.40
66381;BME280;53177;52.648;1.214;2023-07-16T11:29:37;100275.03;;;20.54;55.83
66381;BME280;53177;52.648;1.214;2023-07-16T11:32:03;100269.66;;;20.42;56.90
66381;BME280;53177;52.648;1.214;2023-07-16T11:34:28;100269.84;;;20.76;57.48
66381;BME280;53177;52.648;1.214;2023-07-16T11:36:53;100280.72;;;21.48;55.74
66381;BME280;53177;52.648;1.214;2023-07-16T11:39:19;100281.00;;;21.56;54.30
66381;BME280;53177;52.648;1.214;2023-07-16T11:41:58;100282.59;;;22.06;53.15
66381;BME280;53177;52.648;1.214;2023-07-16T11:44:24;100284.69;;;21.90;53.17
66381;BME280;53177;52.648;1.214;2023-07-16T11:46:49;100281.81;;;21.45;54.92
66381;BME280;53177;52.648;1.214;2023-07-16T11:49:15;100288.53;;;20.91;55.34
66381;BME280;53177;52.648;1.214;2023-07-16T11:51:40;100281.59;;;21.24;56.90
66381;BME280;53177;52.648;1.214;2023-07-16T11:54:08;100277.19;;;21.11;53.99
66381;BME280;53177;52.648;1.214;2023-07-16T11:56:34;100291.25;;;21.51;55.02
66381;BME280;53177;52.648;1.214;2023-07-16T11:58:59;100292.63;;;21.80;51.22
66381;BME280;53177;52.648;1.214;2023-07-16T12:01:24;100296.75;;;22.43;54.16
66381;BME280;53177;52.648;1.214;2023-07-16T12:03:50;100296.84;;;22.30;50.10
66381;BME280;53177;52.648;1.214;2023-07-16T12:06:15;100293.13;;;22.09;50.28
66381;BME280;53177;52.648;1.214;2023-07-16T12:08:40;100288.31;;;22.01;50.93
66381;BME280;53177;52.648;1.214;2023-07-16T12:11:06;100294.19;;;22.52;49.89
66381;BME280;53177;52.648;1.214;2023-07-16T12:13:31;100290.34;;;22.32;50.54
66381;BME280;53177;52.648;1.214;2023-07-16T12:15:57;100300.44;;;22.53;50.30
66381;BME280;53177;52.648;1.214;2023-07-16T12:18:22;100292.88;;;22.12;48.55
66381;BME280;53177;52.648;1.214;2023-07-16T12:20:47;100296.72;;;22.20;51.52
66381;BME280;53177;52.648;1.214;2023-07-16T12:23:13;100297.19;;;22.25;49.32
66381;BME280;53177;52.648;1.214;2023-07-16T12:25:38;100308.28;;;22.10;49.75
66381;BME280;53177;52.648;1.214;2023-07-16T12:28:04;100304.03;;;21.60;52.12
66381;BME280;53177;52.648;1.214;2023-07-16T12:30:29;100327.47;;;21.47;53.13
66381;BME280;53177;52.648;1.214;2023-07-16T12:32:54;100310.00;;;21.40;49.92
66381;BME280;53177;52.648;1.214;2023-07-16T12:35:20;100308.91;;;22.02;46.81
66381;BME280;53177;52.648;1.214;2023-07-16T12:37:45;100309.31;;;22.20;47.97
66381;BME280;53177;52.648;1.214;2023-07-16T12:40:12;100313.00;;;22.30;47.12
66381;BME280;53177;52.648;1.214;2023-07-16T12:42:38;100310.63;;;22.60;47.66
66381;BME280;53177;52.648;1.214;2023-07-16T12:45:04;100304.75;;;23.00;48.53
66381;BME280;53177;52.648;1.214;2023-07-16T12:47:29;100309.47;;;22.41;48.63
66381;BME280;53177;52.648;1.214;2023-07-16T12:49:55;100308.81;;;22.15;50.00
66381;BME280;53177;52.648;1.214;2023-07-16T12:52:20;100305.69;;;22.54;49.42
66381;BME280;53177;52.648;1.214;2023-07-16T12:54:46;100308.34;;;22.32;49.97